Time;durP1;ratioP1;P1;durP2;ratioP2;P2;SDS_P1;SDS_P2;PMS_P1;PMS_P2;Temp;Humidity;BMP_temperature;BMP_pressure;BME280_temperature;BME280_humidity;BME280_pressure;Samples;Min_cycle;Max_cycle;Signal;HPM_P1;HPM_P2
2022/08/18 05:00:42;;;;;;;7.70;7.10;;;21.10;97.20;;;;;;1734186;28;20176;-75
2022/08/18 05:01:35;;;;;;;7.55;6.85;;;21.10;97.20;;;;;;1734246;28;20207;-74
2022/08/18 05:02:27;;;;;;;8.65;7.57;;;21.10;97.20;;;;;;1733762;28;20203;-74
2022/08/18 05:03:18;;;;;;;8.05;7.35;;;21.10;97.20;;;;;;1734173;28;20215;-74
2022/08/18 05:04:12;;;;;;;8.05;7.25;;;21.10;97.20;;;;;;1734079;28;20227;-75
2022/08/18 05:05:03;;;;;;;7.55;6.95;;;21.10;97.20;;;;;;1734125;28;20298;-74
2022/08/18 05:05:56;;;;;;;7.88;7.30;;;21.10;97.20;;;;;;1733917;28;20279;-74
2022/08/18 05:06:47;;;;;;;7.65;7.05;;;21.10;97.20;;;;;;1734146;28;20199;-74
2022/08/18 05:07:44;;;;;;;7.43;6.93;;;21.10;97.20;;;;;;1734034;28;20246;-74
2022/08/18 05:08:35;;;;;;;7.15;6.55;;;21.10;97.20;;;;;;1734163;28;20828;-74
2022/08/18 05:09:27;;;;;;;7.27;6.77;;;21.10;97.20;;;;;;1734109;28;20634;-74
2022/08/18 05:10:18;;;;;;;7.88;7.28;;;21.10;97.20;;;;;;1734197;28;20211;-74
2022/08/18 05:11:10;;;;;;;7.33;6.73;;;21.10;97.20;;;;;;1734064;28;20729;-75
2022/08/18 05:12:00;;;;;;;7.95;7.25;;;21.10;97.20;;;;;;1734039;28;20682;-75
2022/08/18 05:12:52;;;;;;;7.87;7.27;;;21.10;97.20;;;;;;1733811;28;20559;-74
2022/08/18 05:13:43;;;;;;;7.50;6.85;;;21.10;97.20;;;;;;1733858;28;20258;-74
2022/08/18 05:14:35;;;;;;;6.60;6.10;;;21.10;97.20;;;;;;1734230;28;20278;-74
2022/08/18 05:15:26;;;;;;;7.22;6.63;;;21.10;97.20;;;;;;1733639;28;20816;-74
2022/08/18 05:16:19;;;;;;;7.23;6.73;;;21.10;97.20;;;;;;1734093;28;20663;-74
2022/08/18 05:17:11;;;;;;;7.40;6.80;;;21.10;97.20;;;;;;1734133;28;20569;-73
2022/08/18 05:18:04;;;;;;;7.82;7.22;;;21.10;97.20;;;;;;1734076;28;20188;-74
2022/08/18 05:18:55;;;;;;;7.75;7.15;;;21.10;97.20;;;;;;1734151;28;20678;-74
2022/08/18 05:19:47;;;;;;;7.75;7.15;;;21.00;97.20;;;;;;1734040;28;20602;-74
2022/08/18 05:20:39;;;;;;;7.32;6.68;;;21.00;97.20;;;;;;1734107;28;20580;-74
2022/08/18 05:21:32;;;;;;;7.57;6.90;;;21.00;97.20;;;;;;1734073;28;20258;-74
2022/08/18 05:22:23;;;;;;;8.30;7.65;;;21.00;97.20;;;;;;1733786;28;20242;-74
2022/08/18 05:23:16;;;;;;;7.50;6.90;;;21.00;97.20;;;;;;1734177;28;20265;-74
2022/08/18 05:24:07;;;;;;;7.80;7.10;;;21.00;97.20;;;;;;1734046;28;20318;-74
2022/08/18 05:24:59;;;;;;;8.00;7.35;;;21.00;97.20;;;;;;1734060;28;20742;-74
2022/08/18 05:25:56;;;;;;;8.32;7.55;;;21.00;97.20;;;;;;1733703;28;20200;-74
2022/08/18 05:26:48;;;;;;;7.70;7.10;;;21.00;97.20;;;;;;1735223;28;20192;-74
2022/08/18 05:27:42;;;;;;;7.85;7.25;;;21.00;97.20;;;;;;1735175;28;20211;-75
2022/08/18 05:28:36;;;;;;;8.30;7.60;;;21.00;97.20;;;;;;1735303;28;20199;-74
2022/08/18 05:29:28;;;;;;;7.20;6.70;;;21.00;97.20;;;;;;1735489;28;20211;-74
2022/08/18 05:30:20;;;;;;;7.50;6.90;;;21.00;97.20;;;;;;1735175;28;20204;-74
2022/08/18 05:31:14;;;;;;;7.70;7.20;;;21.10;97.20;;;;;;1735411;28;20210;-76
2022/08/18 05:32:08;;;;;;;8.05;7.38;;;21.00;97.20;;;;;;1735375;28;20540;-76
2022/08/18 05:33:00;;;;;;;7.20;6.70;;;21.10;97.20;;;;;;1735140;28;20219;-75
2022/08/18 05:33:54;;;;;;;8.15;7.55;;;21.10;97.20;;;;;;1735238;28;20211;-76
2022/08/18 05:34:47;;;;;;;8.18;7.57;;;21.10;97.20;;;;;;1735321;28;20207;-76
2022/08/18 05:35:44;;;;;;;8.20;7.35;;;21.10;97.20;;;;;;1734968;28;20224;-75
2022/08/18 05:36:51;;;;;;;7.53;6.85;;;21.20;97.20;;;;;;1735375;28;20207;-76
2022/08/18 05:37:53;;;;;;;7.93;7.25;;;21.20;97.20;;;;;;1735508;28;20205;-75
2022/08/18 05:38:53;;;;;;;7.95;7.25;;;21.20;97.20;;;;;;1735321;28;20219;-74
2022/08/18 05:39:52;;;;;;;7.10;6.60;;;21.20;97.20;;;;;;1735405;28;20230;-75
2022/08/18 05:40:44;;;;;;;8.23;7.47;;;21.30;97.20;;;;;;1735334;28;20578;-75
2022/08/18 05:41:40;;;;;;;8.15;7.45;;;21.30;97.20;;;;;;1735354;28;20678;-75
2022/08/18 05:42:36;;;;;;;7.70;7.10;;;21.30;97.20;;;;;;1735059;28;20212;-74
2022/08/18 05:43:28;;;;;;;8.05;7.35;;;21.40;97.20;;;;;;1734945;28;20679;-74
2022/08/18 05:44:23;;;;;;;7.75;7.15;;;21.50;97.20;;;;;;1735291;28;20212;-75
2022/08/18 05:45:18;;;;;;;8.05;7.35;;;21.60;97.20;;;;;;1735426;28;20195;-75
2022/08/18 05:46:09;;;;;;;8.75;7.95;;;21.60;97.20;;;;;;1735283;28;20200;-75
2022/08/18 05:47:05;;;;;;;8.82;8.02;;;21.60;97.20;;;;;;1735300;28;20559;-75
2022/08/18 05:47:59;;;;;;;8.45;7.85;;;21.60;97.20;;;;;;1735098;28;20192;-75
2022/08/18 05:48:51;;;;;;;8.18;7.50;;;21.60;97.20;;;;;;1735322;28;20347;-74
2022/08/18 05:49:43;;;;;;;8.05;7.35;;;21.60;97.20;;;;;;1735211;28;20215;-74
2022/08/18 05:50:37;;;;;;;8.48;7.78;;;21.60;97.20;;;;;;1735251;28;20211;-74
2022/08/18 05:51:33;;;;;;;9.10;8.10;;;21.60;97.20;;;;;;1734866;28;20211;-74
2022/08/18 05:52:31;;;;;;;8.02;7.38;;;21.60;97.20;;;;;;1734715;28;20200;-74
2022/08/18 05:56:45;;;;;;;9.10;8.18;;;21.60;97.20;;;;;;1735148;28;20206;-74
2022/08/18 05:57:21;;;;;;;7.40;6.90;;;21.60;97.20;;;;;;1735159;28;20728;-74
2022/08/18 05:58:16;;;;;;;8.18;7.43;;;21.60;97.20;;;;;;1735208;28;20223;-74
2022/08/18 05:59:10;;;;;;;8.40;7.60;;;21.60;97.20;;;;;;1735191;28;20670;-74
2022/08/18 06:00:03;;;;;;;8.40;7.70;;;21.60;97.20;;;;;;1735195;28;20228;-75
2022/08/18 06:01:00;;;;;;;8.05;7.35;;;21.60;97.20;;;;;;1734990;28;20207;-74
2022/08/18 06:01:58;;;;;;;8.40;7.80;;;21.60;97.20;;;;;;1735305;28;20670;-75
2022/08/18 06:02:57;;;;;;;8.05;7.28;;;21.60;97.20;;;;;;1734953;28;20199;-74
2022/08/18 06:03:54;;;;;;;8.00;7.30;;;21.60;97.20;;;;;;1735136;28;20226;-74
2022/08/18 06:04:50;;;;;;;8.05;7.35;;;21.60;97.20;;;;;;1735242;28;20265;-74
2022/08/18 06:05:47;;;;;;;7.85;7.15;;;21.60;97.20;;;;;;1735196;28;20689;-75
2022/08/18 06:06:40;;;;;;;7.80;7.07;;;21.60;97.20;;;;;;1735123;28;20274;-74
2022/08/18 06:07:35;;;;;;;8.25;7.55;;;21.60;97.20;;;;;;1735186;28;20208;-75
2022/08/18 06:08:31;;;;;;;7.70;7.10;;;21.60;97.20;;;;;;1735138;28;20200;-74
2022/08/18 06:09:27;;;;;;;7.93;7.28;;;21.60;97.20;;;;;;1735200;28;20667;-74
2022/08/18 06:10:20;;;;;;;8.75;7.95;;;21.60;97.20;;;;;;1734922;28;20210;-75
2022/08/18 06:11:10;;;;;;;8.32;7.63;;;21.60;97.20;;;;;;1735171;28;20200;-74
2022/08/18 06:12:09;;;;;;;8.33;7.57;;;21.60;97.20;;;;;;1735108;28;20208;-74
2022/08/18 06:13:02;;;;;;;7.70;7.05;;;21.60;97.20;;;;;;1734908;28;20200;-74
2022/08/18 06:13:53;;;;;;;7.85;7.25;;;21.60;97.20;;;;;;1734820;28;20227;-74
2022/08/18 06:14:45;;;;;;;8.32;7.57;;;21.60;97.20;;;;;;1735088;28;20243;-74
2022/08/18 06:15:47;;;;;;;8.48;7.78;;;21.70;97.20;;;;;;1735033;28;20223;-74
2022/08/18 06:16:58;;;;;;;8.25;7.55;;;21.70;97.20;;;;;;1735056;28;20200;-74
2022/08/18 06:18:12;;;;;;;6.93;6.40;;;21.70;97.20;;;;;;1735069;28;20204;-75
2022/08/18 06:19:18;;;;;;;8.13;7.50;;;21.70;97.20;;;;;;1735108;28;20211;-74
2022/08/18 06:20:19;;;;;;;7.95;7.35;;;21.70;97.20;;;;;;1734868;28;20204;-74
2022/08/18 06:21:27;;;;;;;7.85;7.15;;;21.70;97.20;;;;;;1728563;28;20336;-74
2022/08/18 06:22:28;;;;;;;7.35;6.82;;;21.70;97.20;;;;;;1728021;28;20207;-74
2022/08/18 06:23:30;;;;;;;8.07;7.38;;;21.70;97.20;;;;;;1728289;28;20239;-75
2022/08/18 06:24:30;;;;;;;8.77;7.97;;;21.70;97.20;;;;;;1728262;28;20205;-75
2022/08/18 06:25:27;;;;;;;7.78;7.28;;;21.70;97.20;;;;;;1728215;28;20201;-75
2022/08/18 06:26:33;;;;;;;8.15;7.43;;;21.80;97.20;;;;;;1728264;28;20208;-75
2022/08/18 06:27:32;;;;;;;8.13;7.43;;;21.80;97.20;;;;;;1730861;28;20200;-75
2022/08/18 06:28:24;;;;;;;8.82;8.02;;;21.70;97.20;;;;;;1735144;28;20200;-75
2022/08/18 06:29:27;;;;;;;8.25;7.65;;;21.80;97.20;;;;;;1734848;28;20231;-75
2022/08/18 06:30:21;;;;;;;8.10;7.40;;;21.80;97.20;;;;;;1734880;28;20679;-75
2022/08/18 06:31:17;;;;;;;8.90;8.10;;;21.80;97.20;;;;;;1735069;28;20458;-74
2022/08/18 06:32:25;;;;;;;8.75;8.05;;;21.80;97.20;;;;;;1735047;28;20219;-74
2022/08/18 06:33:36;;;;;;;8.13;7.53;;;21.80;97.20;;;;;;1735102;28;20262;-75
2022/08/18 06:34:41;;;;;;;9.00;8.15;;;21.80;97.20;;;;;;1735171;28;20687;-75
2022/08/18 06:35:36;;;;;;;8.48;7.78;;;21.80;97.20;;;;;;1734923;28;20704;-74
2022/08/18 06:36:39;;;;;;;8.68;7.93;;;21.80;97.20;;;;;;1735081;28;20203;-74
2022/08/18 06:37:33;;;;;;;8.57;7.88;;;21.90;97.20;;;;;;1734513;28;20192;-74
2022/08/18 06:38:39;;;;;;;9.00;8.30;;;21.90;97.20;;;;;;1734915;28;20224;-74
2022/08/18 06:39:34;;;;;;;8.80;8.05;;;21.90;97.20;;;;;;1734939;28;20200;-74
2022/08/18 06:40:25;;;;;;;8.25;7.55;;;21.90;97.20;;;;;;1734913;28;20549;-74
2022/08/18 06:41:20;;;;;;;8.63;7.83;;;22.00;97.20;;;;;;1734970;28;20634;-74
2022/08/18 06:42:16;;;;;;;8.35;7.65;;;22.00;97.20;;;;;;1734657;28;20720;-74
2022/08/18 06:43:13;;;;;;;8.43;7.72;;;22.00;97.20;;;;;;1734971;28;20196;-74
2022/08/18 06:44:07;;;;;;;8.27;7.55;;;22.00;97.20;;;;;;1734714;28;20228;-74
2022/08/18 06:45:01;;;;;;;8.55;7.88;;;22.10;97.20;;;;;;1734931;28;20659;-75
2022/08/18 06:45:52;;;;;;;7.85;7.15;;;22.10;97.20;;;;;;1734960;28;20684;-74
2022/08/18 06:46:49;;;;;;;8.70;7.93;;;22.10;97.20;;;;;;1734793;28;20195;-75
2022/08/18 06:47:48;;;;;;;8.88;8.18;;;22.10;97.20;;;;;;1734537;28;20200;-74
2022/08/18 06:48:44;;;;;;;9.45;8.60;;;22.20;97.20;;;;;;1734885;28;20258;-74
2022/08/18 06:49:44;;;;;;;8.35;7.57;;;22.20;97.20;;;;;;1735080;28;20257;-74
2022/08/18 06:50:45;;;;;;;8.43;7.68;;;22.20;97.20;;;;;;1735015;28;20877;-75
2022/08/18 06:51:36;;;;;;;8.55;7.85;;;22.30;97.20;;;;;;1734959;28;20646;-75
2022/08/18 06:52:32;;;;;;;8.60;8.00;;;22.30;97.20;;;;;;1734624;28;20203;-74
2022/08/18 06:53:50;;;;;;;8.63;7.90;;;22.30;97.20;;;;;;1734871;28;20457;-74
2022/08/18 06:54:42;;;;;;;8.90;8.20;;;22.40;97.20;;;;;;1734916;28;20207;-75
2022/08/18 06:55:35;;;;;;;9.32;8.63;;;22.40;97.20;;;;;;1734840;28;20204;-75
2022/08/18 06:56:35;;;;;;;9.35;8.55;;;22.40;97.20;;;;;;1734763;28;20212;-74
2022/08/18 06:57:30;;;;;;;8.68;7.97;;;22.40;97.20;;;;;;1734549;28;20663;-74
2022/08/18 06:58:28;;;;;;;9.65;8.60;;;22.40;97.20;;;;;;1734861;28;20685;-74
2022/08/18 06:59:23;;;;;;;9.07;8.38;;;22.40;97.20;;;;;;1734824;28;20204;-74
2022/08/18 07:00:22;;;;;;;9.32;8.63;;;22.50;97.20;;;;;;1734860;28;20224;-74
2022/08/18 07:01:16;;;;;;;8.20;7.40;;;22.50;97.20;;;;;;1734892;28;20208;-75
2022/08/18 07:02:22;;;;;;;8.80;8.00;;;22.50;97.20;;;;;;1734813;28;20219;-75
2022/08/18 07:03:16;;;;;;;8.57;7.97;;;22.50;97.20;;;;;;1734801;28;20204;-74
2022/08/18 07:04:08;;;;;;;9.02;8.32;;;22.50;97.20;;;;;;1734731;28;20208;-75
2022/08/18 07:05:04;;;;;;;8.70;7.95;;;22.50;97.20;;;;;;1734848;28;20207;-75
2022/08/18 07:06:01;;;;;;;9.00;8.27;;;22.50;97.20;;;;;;1734819;28;20200;-74
2022/08/18 07:06:52;;;;;;;8.95;8.25;;;22.50;97.20;;;;;;1734770;28;20210;-74
2022/08/18 07:07:43;;;;;;;9.43;8.73;;;22.50;97.20;;;;;;1734432;28;20196;-74
2022/08/18 07:08:36;;;;;;;9.32;8.52;;;22.50;97.20;;;;;;1734806;28;20208;-74
2022/08/18 07:09:34;;;;;;;8.65;7.88;;;22.50;97.20;;;;;;1734729;28;20611;-75
2022/08/18 07:10:31;;;;;;;10.48;9.65;;;22.50;97.20;;;;;;1734753;28;20273;-75
2022/08/18 07:11:25;;;;;;;9.18;8.38;;;22.50;97.20;;;;;;1734740;28;20253;-75
2022/08/18 07:12:22;;;;;;;10.10;9.25;;;22.50;97.20;;;;;;1734522;28;20211;-75
2022/08/18 07:13:18;;;;;;;9.68;8.73;;;22.50;97.20;;;;;;1734664;28;20618;-75
2022/08/18 07:14:13;;;;;;;9.07;8.27;;;22.50;97.20;;;;;;1734657;28;20211;-76
2022/08/18 07:15:06;;;;;;;9.40;8.70;;;22.40;97.20;;;;;;1734777;28;20200;-75
2022/08/18 07:16:16;;;;;;;10.32;9.52;;;22.40;97.20;;;;;;1734648;28;20293;-75
2022/08/18 07:17:10;;;;;;;8.82;8.13;;;22.40;97.20;;;;;;1734651;28;20202;-75
2022/08/18 07:18:04;;;;;;;8.43;7.68;;;22.40;97.20;;;;;;1734394;28;20196;-74
2022/08/18 07:19:07;;;;;;;9.10;8.32;;;22.40;97.20;;;;;;1734682;28;20196;-74
2022/08/18 07:20:07;;;;;;;9.85;9.05;;;22.40;97.20;;;;;;1734690;28;20204;-75
2022/08/18 07:21:02;;;;;;;9.10;8.38;;;22.40;97.20;;;;;;1734705;28;20207;-75
2022/08/18 07:22:03;;;;;;;9.80;8.85;;;22.40;97.20;;;;;;1734795;28;20242;-75
2022/08/18 07:22:57;;;;;;;8.60;7.85;;;22.40;97.20;;;;;;1734382;28;20204;-74
2022/08/18 07:23:58;;;;;;;8.80;8.10;;;22.30;97.20;;;;;;1734597;28;20224;-74
2022/08/18 07:24:53;;;;;;;9.00;8.10;;;22.40;97.20;;;;;;1734752;28;20192;-74
2022/08/18 07:25:45;;;;;;;8.32;7.63;;;22.30;97.20;;;;;;1734567;28;20667;-74
2022/08/18 07:26:58;;;;;;;8.30;7.60;;;22.30;97.20;;;;;;1734801;28;20566;-74
2022/08/18 07:27:51;;;;;;;8.68;7.72;;;22.30;97.20;;;;;;1734425;28;20567;-74
2022/08/18 07:28:45;;;;;;;8.50;7.80;;;22.30;97.20;;;;;;1734657;28;20467;-74
2022/08/18 07:29:39;;;;;;;8.40;7.70;;;22.20;97.20;;;;;;1734642;28;20203;-74
2022/08/18 07:30:35;;;;;;;8.55;7.80;;;22.20;97.20;;;;;;1734356;28;20192;-74
2022/08/18 07:31:37;;;;;;;8.70;7.93;;;22.20;97.20;;;;;;1734591;28;20204;-74
2022/08/18 07:32:34;;;;;;;8.10;7.50;;;22.20;97.20;;;;;;1734371;28;20584;-74
2022/08/18 07:33:26;;;;;;;8.90;7.50;;;22.20;97.20;;;;;;1734523;28;20231;-74
2022/08/18 07:34:24;;;;;;;8.40;7.75;;;22.20;97.20;;;;;;1734565;28;20291;-74
2022/08/18 07:35:19;;;;;;;7.95;7.25;;;22.20;97.20;;;;;;1734681;28;20246;-74
2022/08/18 07:36:11;;;;;;;9.10;8.30;;;22.10;97.20;;;;;;1734606;28;20228;-74
2022/08/18 07:37:06;;;;;;;9.05;8.35;;;22.10;97.20;;;;;;1734480;28;20195;-74
2022/08/18 07:38:01;;;;;;;8.93;8.23;;;22.10;97.20;;;;;;1734314;28;20228;-74
2022/08/18 07:38:55;;;;;;;8.13;7.53;;;22.00;97.20;;;;;;1734623;28;20204;-74
2022/08/18 07:39:54;;;;;;;7.80;7.10;;;22.00;97.20;;;;;;1734554;28;20204;-74
2022/08/18 07:40:51;;;;;;;8.57;7.90;;;22.00;97.20;;;;;;1734473;28;20291;-73
2022/08/18 07:41:56;;;;;;;8.68;7.88;;;22.00;97.20;;;;;;1734552;28;20204;-74
2022/08/18 07:42:52;;;;;;;8.20;7.45;;;22.00;97.20;;;;;;1734382;28;20211;-74
2022/08/18 07:43:58;;;;;;;8.93;8.23;;;22.10;97.20;;;;;;1734427;28;20224;-74
2022/08/18 07:44:54;;;;;;;8.13;7.53;;;22.10;97.20;;;;;;1734657;28;20552;-74
2022/08/18 07:45:47;;;;;;;9.10;8.40;;;22.10;97.20;;;;;;1734632;28;20196;-74
2022/08/18 07:46:44;;;;;;;8.65;8.05;;;22.10;97.20;;;;;;1734487;28;20207;-73
2022/08/18 07:47:43;;;;;;;8.98;8.18;;;22.10;97.20;;;;;;1734348;28;20682;-75
2022/08/18 07:48:34;;;;;;;9.00;8.30;;;22.10;97.20;;;;;;1734281;28;20615;-74
2022/08/18 07:49:32;;;;;;;8.13;7.50;;;22.10;97.20;;;;;;1734144;28;20199;-74
2022/08/18 07:50:26;;;;;;;8.40;7.70;;;22.10;97.20;;;;;;1734473;28;20203;-74
2022/08/18 07:51:23;;;;;;;8.82;8.07;;;22.10;97.20;;;;;;1734516;28;20200;-74
2022/08/18 07:52:20;;;;;;;9.00;8.27;;;22.10;97.20;;;;;;1734269;28;20689;-74
2022/08/18 07:53:21;;;;;;;8.77;8.07;;;22.10;97.20;;;;;;1734482;28;20211;-74
2022/08/18 07:54:23;;;;;;;8.35;7.65;;;22.10;97.20;;;;;;1734425;28;20211;-74
2022/08/18 07:55:23;;;;;;;8.25;7.55;;;22.10;97.20;;;;;;1734199;28;20204;-74
2022/08/18 07:56:23;;;;;;;8.27;7.57;;;22.00;97.20;;;;;;1734463;28;20231;-74
2022/08/18 07:57:23;;;;;;;9.10;8.20;;;22.00;97.20;;;;;;1734355;28;20612;-74
2022/08/18 07:58:23;;;;;;;9.95;8.32;;;22.00;97.20;;;;;;1734490;28;20599;-74
2022/08/18 07:59:23;;;;;;;8.40;7.80;;;22.00;97.20;;;;;;1734437;28;20211;-75
2022/08/18 08:00:20;;;;;;;8.60;7.80;;;22.00;97.20;;;;;;1734532;28;20615;-74
2022/08/18 08:01:17;;;;;;;8.65;7.93;;;21.90;97.20;;;;;;1734411;28;20214;-74
2022/08/18 08:02:21;;;;;;;8.95;8.27;;;21.90;97.20;;;;;;1734389;28;20238;-74
2022/08/18 08:03:26;;;;;;;8.70;7.90;;;21.90;97.20;;;;;;1734508;28;20208;-74
2022/08/18 08:04:28;;;;;;;7.88;7.28;;;21.90;97.20;;;;;;1734480;28;20196;-74
2022/08/18 08:05:34;;;;;;;8.50;7.80;;;21.90;97.20;;;;;;1734064;28;20231;-74
2022/08/18 08:06:32;;;;;;;8.18;7.47;;;21.90;97.20;;;;;;1734387;28;20675;-74
2022/08/18 08:07:24;;;;;;;7.75;7.22;;;21.90;97.20;;;;;;1734342;28;20200;-74
2022/08/18 08:08:24;;;;;;;8.55;7.75;;;21.90;97.20;;;;;;1734361;28;20294;-74
2022/08/18 08:09:25;;;;;;;7.85;7.25;;;21.90;97.20;;;;;;1734449;28;20196;-74
2022/08/18 08:10:27;;;;;;;8.18;7.57;;;21.90;97.20;;;;;;1734400;28;20203;-74
2022/08/18 08:11:30;;;;;;;8.50;7.80;;;22.00;97.20;;;;;;1734299;28;20207;-74
2022/08/18 08:12:30;;;;;;;8.27;7.68;;;22.00;97.20;;;;;;1733927;28;20223;-74
2022/08/18 08:13:29;;;;;;;7.97;7.30;;;22.10;97.20;;;;;;1734231;28;20578;-73
2022/08/18 08:14:35;;;;;;;8.45;7.72;;;22.10;97.20;;;;;;1734420;28;20626;-73
2022/08/18 08:15:34;;;;;;;8.25;7.50;;;22.10;97.20;;;;;;1734147;28;20208;-73
2022/08/18 08:16:36;;;;;;;8.77;8.07;;;22.20;97.20;;;;;;1734237;28;20591;-74
2022/08/18 08:17:32;;;;;;;8.02;7.28;;;22.20;97.20;;;;;;1734382;28;20216;-73
2022/08/18 08:18:34;;;;;;;7.97;7.28;;;22.30;97.20;;;;;;1734392;28;20204;-74
2022/08/18 08:20:01;;;;;;;8.38;7.68;;;22.30;97.20;;;;;;1734381;28;20295;-74
2022/08/18 08:20:58;;;;;;;8.57;7.90;;;22.40;97.20;;;;;;1734402;28;20210;-74
2022/08/18 08:21:56;;;;;;;7.90;7.10;;;22.40;97.20;;;;;;1734380;28;20207;-73
2022/08/18 08:23:03;;;;;;;8.57;7.78;;;22.50;97.20;;;;;;1734051;28;20266;-73
2022/08/18 08:24:07;;;;;;;7.85;7.25;;;22.50;97.20;;;;;;1734291;28;20264;-73
2022/08/18 08:25:06;;;;;;;8.50;7.80;;;22.50;97.20;;;;;;1734418;28;20196;-74
2022/08/18 08:26:21;;;;;;;16.35;7.35;;;22.60;97.20;;;;;;1733354;28;20659;-74
2022/08/18 08:27:24;;;;;;;14.88;8.23;;;22.60;97.20;;;;;;1730534;28;20195;-73
2022/08/18 08:28:27;;;;;;;14.98;7.80;;;22.60;97.20;;;;;;1734339;28;20215;-74
2022/08/18 08:29:29;;;;;;;8.25;7.40;;;22.70;97.20;;;;;;1734348;28;20203;-73
2022/08/18 08:30:24;;;;;;;8.30;7.60;;;22.70;97.20;;;;;;1734111;28;20663;-74
2022/08/18 08:31:27;;;;;;;8.55;7.80;;;22.80;97.20;;;;;;1734318;28;20204;-74
2022/08/18 08:32:31;;;;;;;6.90;6.30;;;22.80;97.20;;;;;;1734042;28;20203;-73
2022/08/18 08:33:27;;;;;;;7.70;7.15;;;22.90;97.20;;;;;;1734199;28;20214;-74
2022/08/18 08:34:23;;;;;;;7.75;7.05;;;22.90;97.20;;;;;;1734396;28;20718;-73
2022/08/18 08:35:19;;;;;;;7.63;7.03;;;22.90;97.20;;;;;;1734124;28;20287;-74
2022/08/18 08:36:17;;;;;;;8.20;7.50;;;23.00;97.20;;;;;;1727410;28;20201;-74
2022/08/18 08:37:13;;;;;;;8.00;7.30;;;23.00;97.20;;;;;;1727385;28;20265;-74
2022/08/18 08:38:12;;;;;;;7.60;7.00;;;23.00;97.20;;;;;;1727432;28;20200;-73
2022/08/18 08:39:08;;;;;;;8.35;7.65;;;23.10;97.20;;;;;;1727390;28;20212;-74
2022/08/18 08:40:07;;;;;;;9.65;8.65;;;23.10;97.20;;;;;;1727401;28;20676;-74
2022/08/18 08:41:02;;;;;;;8.50;7.65;;;23.20;97.20;;;;;;1727384;28;20242;-74
2022/08/18 08:41:58;;;;;;;8.07;7.25;;;23.20;97.20;;;;;;1727529;28;20707;-74
2022/08/18 08:42:53;;;;;;;8.50;7.80;;;23.20;97.20;;;;;;1727209;28;20205;-74
2022/08/18 08:43:51;;;;;;;8.07;7.45;;;23.30;97.20;;;;;;1727245;28;20220;-74
2022/08/18 08:44:45;;;;;;;8.02;7.32;;;23.30;97.20;;;;;;1727391;28;20235;-73
2022/08/18 08:45:42;;;;;;;8.60;7.80;;;23.30;97.20;;;;;;1730270;28;20257;-74
2022/08/18 08:46:41;;;;;;;8.60;7.78;;;23.40;97.20;;;;;;1734306;28;20200;-73
2022/08/18 08:47:38;;;;;;;8.90;8.10;;;23.40;97.20;;;;;;1734286;28;20575;-73
2022/08/18 08:48:34;;;;;;;8.40;7.70;;;23.40;97.20;;;;;;1734187;28;20200;-74
2022/08/18 08:49:30;;;;;;;8.20;7.60;;;23.50;97.20;;;;;;1734200;28;20442;-73
2022/08/18 08:50:26;;;;;;;8.05;7.32;;;23.50;97.20;;;;;;1734271;28;20243;-74
2022/08/18 08:51:35;;;;;;;8.45;7.18;;;23.50;97.20;;;;;;1734148;28;20219;-74
2022/08/18 08:52:32;;;;;;;7.18;6.60;;;23.50;97.20;;;;;;1733985;28;20573;-74
2022/08/18 08:53:29;;;;;;;8.30;6.82;;;23.50;97.20;;;;;;1733991;28;20208;-74
2022/08/18 08:54:24;;;;;;;8.00;7.32;;;23.50;97.20;;;;;;1734175;28;20208;-74
2022/08/18 08:55:24;;;;;;;8.27;7.50;;;23.50;97.20;;;;;;1734064;28;20206;-74
2022/08/18 08:56:18;;;;;;;8.10;7.30;;;23.50;97.20;;;;;;1727342;28;20204;-74
2022/08/18 08:57:11;;;;;;;7.95;7.35;;;23.50;97.20;;;;;;1727256;28;20212;-74
2022/08/18 08:58:15;;;;;;;7.80;7.22;;;23.50;97.20;;;;;;1727408;28;20350;-74
2022/08/18 08:59:10;;;;;;;7.60;6.93;;;23.50;97.20;;;;;;1727398;28;20192;-74
2022/08/18 09:00:07;;;;;;;7.95;7.15;;;23.60;97.20;;;;;;1727707;28;20300;-74
2022/08/18 09:01:00;;;;;;;7.13;6.53;;;23.60;97.20;;;;;;1728799;28;20227;-74
2022/08/18 09:02:00;;;;;;;8.02;7.20;;;23.70;97.20;;;;;;1728739;28;20697;-74
2022/08/18 09:03:14;;;;;;;7.88;7.28;;;23.80;97.20;;;;;;1728542;28;20189;-74
2022/08/18 09:04:20;;;;;;;7.78;7.18;;;23.90;97.20;;;;;;1728612;28;20231;-74
2022/08/18 09:05:17;;;;;;;7.38;6.88;;;24.10;97.20;;;;;;1728824;28;20192;-74
2022/08/18 09:06:21;;;;;;;8.35;7.63;;;24.20;97.20;;;;;;1735163;28;20647;-74
2022/08/18 09:07:32;;;;;;;7.70;7.10;;;24.30;97.20;;;;;;1735604;28;20200;-74
2022/08/18 09:08:55;;;;;;;7.68;6.95;;;24.50;97.20;;;;;;1735469;28;20306;-74
2022/08/18 09:10:01;;;;;;;6.63;6.15;;;24.60;97.20;;;;;;1735506;28;20278;-74
2022/08/18 09:11:18;;;;;;;7.30;6.72;;;24.70;97.20;;;;;;1735645;28;20204;-74
2022/08/18 09:12:35;;;;;;;8.13;7.43;;;24.90;97.20;;;;;;1735563;28;20566;-74
2022/08/18 09:14:06;;;;;;;7.35;6.75;;;25.00;97.20;;;;;;1735240;28;20294;-74
2022/08/18 09:15:23;;;;;;;7.70;7.10;;;25.10;97.20;;;;;;1735484;28;20204;-74
2022/08/18 09:16:26;;;;;;;8.13;7.43;;;25.20;97.20;;;;;;1728663;28;20652;-74
2022/08/18 09:17:54;;;;;;;7.63;7.03;;;25.30;97.20;;;;;;1728664;28;20197;-73
2022/08/18 09:18:54;;;;;;;7.90;7.30;;;25.30;97.20;;;;;;1723642;28;20196;-74
2022/08/18 09:20:01;;;;;;;7.40;6.90;;;25.40;97.20;;;;;;1728684;28;20659;-74
2022/08/18 09:21:02;;;;;;;8.77;7.97;;;25.50;97.20;;;;;;1728722;28;20205;-74
2022/08/18 09:21:59;;;;;;;8.65;7.95;;;25.50;97.20;;;;;;1728675;28;20200;-74
2022/08/18 09:22:57;;;;;;;7.88;7.35;;;25.50;97.20;;;;;;1728326;28;20204;-74
2022/08/18 09:23:55;;;;;;;6.95;6.45;;;25.60;97.20;;;;;;1728553;28;20224;-74
2022/08/18 09:24:48;;;;;;;7.60;7.00;;;25.60;97.20;;;;;;1728637;28;20211;-74
2022/08/18 09:25:51;;;;;;;7.90;7.13;;;25.60;97.20;;;;;;1730864;28;20204;-75
2022/08/18 09:26:48;;;;;;;8.20;7.35;;;25.70;97.20;;;;;;1735409;28;20211;-74
2022/08/18 09:27:42;;;;;;;8.00;7.38;;;25.70;97.20;;;;;;1735457;28;20203;-74
2022/08/18 09:28:57;;;;;;;9.20;7.05;;;25.80;97.20;;;;;;1735443;28;20204;-74
2022/08/18 09:29:51;;;;;;;7.63;7.03;;;25.70;97.20;;;;;;1735481;28;20206;-74
2022/08/18 09:30:47;;;;;;;7.00;6.50;;;25.80;97.20;;;;;;1735411;28;20203;-74
2022/08/18 09:31:42;;;;;;;8.38;7.63;;;25.80;97.20;;;;;;1735419;28;20211;-74
2022/08/18 09:32:56;;;;;;;9.23;7.80;;;25.80;97.20;;;;;;1735181;28;20219;-74
2022/08/18 09:34:03;;;;;;;7.10;6.40;;;25.80;97.20;;;;;;1735207;28;20310;-74
2022/08/18 09:35:06;;;;;;;7.00;6.40;;;25.80;97.20;;;;;;1735447;28;20300;-74
2022/08/18 09:36:11;;;;;;;9.50;8.73;;;25.80;97.20;;;;;;1735098;28;20204;-74
2022/08/18 09:37:16;;;;;;;8.13;7.53;;;25.90;97.20;;;;;;1735252;28;20262;-74
2022/08/18 09:42:00;;;;;;;7.72;6.97;;;26.00;97.20;;;;;;1735553;28;20233;-74
2022/08/18 09:42:56;;;;;;;8.85;8.05;;;26.10;97.20;;;;;;1735179;28;20655;-74
2022/08/18 09:44:08;;;;;;;7.32;6.72;;;26.20;97.20;;;;;;1735184;28;20725;-74
2022/08/18 09:45:11;;;;;;;7.47;6.82;;;26.30;97.20;;;;;;1735319;28;20286;-74
2022/08/18 09:46:04;;;;;;;7.80;7.20;;;26.40;97.20;;;;;;1735011;28;20192;-74
2022/08/18 09:46:59;;;;;;;7.80;7.20;;;26.40;97.20;;;;;;1734944;28;20184;-74
2022/08/18 09:47:57;;;;;;;9.55;8.57;;;26.50;97.20;;;;;;1735266;28;20211;-74
2022/08/18 09:49:23;;;;;;;7.80;7.10;;;26.40;97.20;;;;;;1735361;28;20211;-74
2022/08/18 09:50:52;;;;;;;8.15;7.53;;;26.40;97.20;;;;;;1735179;28;20211;-75
2022/08/18 09:51:43;;;;;;;9.10;8.32;;;26.40;97.20;;;;;;1735153;28;20265;-74
2022/08/18 09:52:56;;;;;;;7.90;7.30;;;26.40;97.20;;;;;;1735024;28;20210;-74
2022/08/18 09:54:19;;;;;;;8.20;7.53;;;26.40;97.20;;;;;;1735157;28;20259;-74
2022/08/18 09:55:38;;;;;;;7.50;7.00;;;26.50;97.20;;;;;;1735078;28;20249;-74
2022/08/18 09:57:04;;;;;;;8.30;7.68;;;26.50;97.20;;;;;;1735292;28;20196;-75
2022/08/18 09:58:14;;;;;;;7.40;6.90;;;26.60;97.20;;;;;;1707547;29;20218;-74
2022/08/18 09:59:06;;;;;;;8.50;7.70;;;26.70;97.20;;;;;;1735223;28;20443;-74
2022/08/18 10:00:18;;;;;;;7.35;6.75;;;26.70;97.20;;;;;;1735151;28;20222;-74
2022/08/18 10:01:45;;;;;;;8.40;7.70;;;26.80;97.20;;;;;;1735292;28;20230;-75
2022/08/18 10:03:11;;;;;;;8.15;7.55;;;26.90;97.20;;;;;;1728870;28;20455;-74
2022/08/18 10:04:29;;;;;;;8.40;7.60;;;26.90;97.20;;;;;;1735029;28;20223;-74
2022/08/18 10:05:26;;;;;;;7.63;7.00;;;27.00;97.20;;;;;;1734887;28;20203;-74
2022/08/18 10:06:19;;;;;;;8.87;8.03;;;27.00;97.20;;;;;;1735224;28;20454;-74
2022/08/18 10:07:30;;;;;;;8.10;7.40;;;27.00;97.20;;;;;;1735129;28;20438;-74
2022/08/18 10:08:55;;;;;;;8.55;7.82;;;27.00;97.20;;;;;;1735110;28;20650;-75
2022/08/18 10:10:11;;;;;;;8.90;8.10;;;26.90;97.20;;;;;;1728390;28;20200;-74
2022/08/18 10:11:26;;;;;;;7.82;7.18;;;26.90;97.20;;;;;;1731718;28;20442;-75
2022/08/18 10:12:28;;;;;;;7.63;7.03;;;26.90;97.20;;;;;;1727470;28;20301;-75
2022/08/18 10:13:25;;;;;;;7.38;6.88;;;26.90;97.20;;;;;;1728295;28;20962;-75
2022/08/18 10:14:39;;;;;;;8.73;7.93;;;27.00;97.20;;;;;;1728384;28;20251;-75